createdAt,value
2018-11-23T00:02:01.484Z,1021.73
2018-11-23T00:07:01.475Z,1021.73
2018-11-23T00:23:01.616Z,1021.68
2018-11-23T00:28:01.544Z,1021.68
2018-11-23T00:43:01.465Z,1021.65
2018-11-23T00:58:01.483Z,1021.58
2018-11-23T01:13:02.558Z,1021.44
2018-11-23T01:28:01.536Z,1021.35
2018-11-23T01:43:01.584Z,1021.36
2018-11-23T01:58:01.500Z,1021.25
2018-11-23T02:13:01.512Z,1021.19
2018-11-23T02:29:01.451Z,1021.09
2018-11-23T02:39:01.476Z,1020.96
2018-11-23T02:54:01.531Z,1020.79
2018-11-23T03:09:01.515Z,1020.82
2018-11-23T03:19:01.474Z,1020.72
2018-11-23T03:34:01.400Z,1020.57
2018-11-23T03:49:01.477Z,1020.47
2018-11-23T04:04:01.492Z,1020.46
2018-11-23T04:19:01.419Z,1020.43
2018-11-23T04:34:01.461Z,1020.41
2018-11-23T04:49:01.720Z,1020.39
2018-11-23T05:04:01.571Z,1020.36
2018-11-23T05:14:01.480Z,1020.45
2018-11-23T05:29:01.474Z,1020.43
2018-11-23T05:44:01.482Z,1020.38
2018-11-23T05:49:01.401Z,1020.38
2018-11-23T05:59:01.408Z,1020.4
2018-11-23T06:05:01.441Z,1020.36
2018-11-23T06:15:01.611Z,1020.28
2018-11-23T06:30:01.575Z,1020.28
2018-11-23T06:45:01.547Z,1020.32
2018-11-23T07:00:01.712Z,1020.34
2018-11-23T07:15:01.746Z,1020.28
2018-11-23T07:20:01.549Z,1020.28
2018-11-23T07:30:02.013Z,1020.31
2018-11-23T07:35:01.776Z,1020.32
2018-11-23T07:45:01.561Z,1020.31
2018-11-23T08:00:01.597Z,1020.28
2018-11-23T08:10:01.561Z,1020.19
2018-11-23T08:15:01.685Z,1020.14
2018-11-23T08:20:01.812Z,1020.14
2018-11-23T08:30:02.129Z,1020.17
2018-11-23T08:45:01.628Z,1019.98
2018-11-23T09:00:01.564Z,1019.99
2018-11-23T09:15:01.558Z,1019.9
2018-11-23T09:30:01.570Z,1019.86
2018-11-23T09:45:02.457Z,1019.79
2018-11-23T10:00:01.559Z,1019.67
2018-11-23T10:15:01.551Z,1019.63
2018-11-23T10:25:01.751Z,1019.62
2018-11-23T10:30:01.793Z,1019.62
2018-11-23T10:45:01.555Z,1019.55
2018-11-23T10:50:01.567Z,1019.55
2018-11-23T10:55:01.579Z,1019.47
2018-11-23T11:11:01.584Z,1019.3
2018-11-23T11:16:01.551Z,1019.3
2018-11-23T11:31:01.588Z,1019.0
2018-11-23T11:41:01.474Z,1018.94
2018-11-23T11:51:01.552Z,1018.75
2018-11-23T12:06:01.560Z,1018.77
2018-11-23T12:21:01.556Z,1018.5
2018-11-23T12:26:01.557Z,1018.5
2018-11-23T12:41:01.605Z,1018.33
2018-11-23T12:56:01.532Z,1018.24
2018-11-23T13:11:01.675Z,1018.04
2018-11-23T13:22:01.435Z,1017.93
2018-11-23T13:27:01.398Z,1017.93
2018-11-23T13:42:01.540Z,1017.86
2018-11-23T13:57:01.453Z,1017.73
2018-11-23T14:12:06.411Z,1017.64
2018-11-23T14:27:01.399Z,1017.68
2018-11-23T14:42:01.415Z,1017.6
2018-11-23T14:57:01.454Z,1017.63
2018-11-23T15:12:01.414Z,1017.49
2018-11-23T15:27:01.372Z,1017.52
2018-11-23T15:42:01.788Z,1017.41
2018-11-23T15:57:01.454Z,1017.17
2018-11-23T16:12:01.399Z,1017.13
2018-11-23T16:27:01.468Z,1017.14
2018-11-23T16:42:01.471Z,1016.93
2018-11-23T16:52:01.474Z,1016.84
2018-11-23T17:02:01.515Z,1016.79
2018-11-23T17:17:01.471Z,1016.7
2018-11-23T17:32:01.482Z,1016.71
2018-11-23T17:47:01.473Z,1016.62
2018-11-23T18:02:01.521Z,1016.69
2018-11-23T18:17:01.425Z,1016.7
2018-11-23T18:32:01.520Z,1016.55
2018-11-23T18:47:01.483Z,1016.43
2018-11-23T19:02:01.501Z,1016.43
2018-11-23T19:17:01.470Z,1016.39
2018-11-23T19:32:01.474Z,1016.23
2018-11-23T19:47:01.464Z,1016.18
2018-11-23T20:02:01.504Z,1015.99
2018-11-23T20:17:01.401Z,1015.89
2018-11-23T20:22:01.481Z,1015.81
2018-11-23T20:37:01.462Z,1015.68
2018-11-23T20:52:02.611Z,1015.65
2018-11-23T20:57:01.615Z,1015.65
2018-11-23T21:12:01.562Z,1015.57
2018-11-23T21:27:01.414Z,1015.48
2018-11-23T21:42:01.478Z,1015.26
2018-11-23T21:52:01.470Z,1015.25
2018-11-23T22:07:01.504Z,1015.23
2018-11-23T22:22:01.459Z,1015.21
2018-11-23T22:37:01.486Z,1015.16
2018-11-23T22:53:01.474Z,1015.06
2018-11-23T23:08:01.499Z,1014.93
2018-11-23T23:13:01.471Z,1014.84
2018-11-23T23:29:01.453Z,1014.64
2018-11-23T23:44:04.191Z,1014.42
2018-11-23T23:59:01.467Z,1014.28
